Time;durP1;ratioP1;P1;durP2;ratioP2;P2;SDS_P1;SDS_P2;PMS_P1;PMS_P2;Temp;Humidity;BMP_temperature;BMP_pressure;BME280_temperature;BME280_humidity;BME280_pressure;Samples;Min_cycle;Max_cycle;Signal;HPM_P1;HPM_P2
2021/03/13 00:02:00;;;;;;;3.72;2.17;;;4.80;99.90;;;;;;480544;247;27502;-72
2021/03/13 00:04:01;;;;;;;3.12;2.28;;;4.80;99.90;;;;;;480570;247;27490;-72
2021/03/13 00:06:02;;;;;;;4.70;2.40;;;4.90;99.90;;;;;;480545;247;27520;-72
2021/03/13 00:08:04;;;;;;;3.17;2.20;;;4.90;99.90;;;;;;480598;247;27497;-73
2021/03/13 00:10:05;;;;;;;3.87;2.20;;;4.90;99.90;;;;;;480575;247;27609;-74
2021/03/13 00:12:06;;;;;;;3.17;2.20;;;4.90;99.90;;;;;;480586;247;27498;-72
2021/03/13 00:14:07;;;;;;;4.53;2.10;;;4.90;99.90;;;;;;480987;247;28062;-73
2021/03/13 00:16:09;;;;;;;2.28;2.00;;;4.90;99.90;;;;;;485324;245;28017;-72
2021/03/13 00:18:10;;;;;;;2.95;2.08;;;5.00;99.90;;;;;;485412;245;27954;-72
2021/03/13 00:20:11;;;;;;;3.17;2.10;;;5.00;99.90;;;;;;485412;245;27496;-74
2021/03/13 00:22:12;;;;;;;2.97;2.10;;;5.00;99.90;;;;;;485407;245;27488;-72
2021/03/13 00:24:14;;;;;;;4.37;2.45;;;5.00;99.90;;;;;;485396;245;27512;-72
2021/03/13 00:26:15;;;;;;;3.40;2.12;;;5.00;99.90;;;;;;485418;245;27494;-73
2021/03/13 00:28:16;;;;;;;2.00;1.80;;;5.00;99.90;;;;;;485395;245;27400;-72
2021/03/13 00:30:17;;;;;;;3.25;2.00;;;5.00;99.90;;;;;;485418;245;27519;-73
2021/03/13 00:32:19;;;;;;;7.25;2.00;;;5.00;99.90;;;;;;485392;245;27592;-72
2021/03/13 00:34:20;;;;;;;2.83;2.20;;;5.00;99.90;;;;;;485386;245;27947;-72
2021/03/13 00:36:21;;;;;;;2.95;2.15;;;5.00;99.90;;;;;;485383;245;27874;-73
2021/03/13 00:38:23;;;;;;;2.42;1.80;;;5.00;99.90;;;;;;485391;245;27941;-73
2021/03/13 00:40:24;;;;;;;2.85;2.25;;;5.00;99.90;;;;;;485411;245;27484;-75
2021/03/13 00:42:25;;;;;;;4.65;2.08;;;5.00;99.90;;;;;;485417;245;27404;-72
2021/03/13 00:44:26;;;;;;;5.35;2.05;;;5.00;99.90;;;;;;485405;245;27489;-72
2021/03/13 00:46:28;;;;;;;3.83;1.80;;;5.00;99.90;;;;;;485419;245;27408;-71
2021/03/13 00:48:29;;;;;;;2.10;1.70;;;4.90;99.90;;;;;;485412;245;27528;-72
2021/03/13 00:50:30;;;;;;;2.28;2.08;;;5.00;99.90;;;;;;485409;245;27508;-73
2021/03/13 00:52:31;;;;;;;3.97;2.08;;;5.00;99.90;;;;;;485392;245;27571;-74
2021/03/13 00:54:33;;;;;;;3.60;2.40;;;5.00;99.90;;;;;;485402;245;27607;-72
2021/03/13 00:56:34;;;;;;;2.53;2.33;;;4.90;99.90;;;;;;485414;245;27867;-73
2021/03/13 00:58:35;;;;;;;5.28;2.08;;;5.00;99.90;;;;;;485431;245;27965;-72
2021/03/13 01:00:36;;;;;;;4.07;2.45;;;5.00;99.90;;;;;;485388;245;27511;-72
2021/03/13 01:02:38;;;;;;;5.00;2.35;;;5.00;99.90;;;;;;485415;245;27407;-73
2021/03/13 01:04:39;;;;;;;2.85;1.92;;;5.00;99.90;;;;;;485396;245;27515;-73
2021/03/13 01:06:40;;;;;;;2.58;2.37;;;5.00;99.90;;;;;;485382;245;27508;-73
2021/03/13 01:08:41;;;;;;;3.53;2.87;;;5.10;99.90;;;;;;485398;245;28153;-72
2021/03/13 01:10:43;;;;;;;7.55;3.17;;;5.10;99.90;;;;;;485388;245;27498;-71
2021/03/13 01:12:44;;;;;;;4.72;2.62;;;5.10;99.90;;;;;;485389;245;27491;-72
2021/03/13 01:14:45;;;;;;;2.80;2.60;;;5.10;99.90;;;;;;485392;245;28050;-72
2021/03/13 01:16:46;;;;;;;3.03;2.55;;;5.10;99.90;;;;;;485414;245;27998;-73
2021/03/13 01:18:48;;;;;;;4.10;2.72;;;5.10;99.90;;;;;;485415;245;27952;-74
2021/03/13 01:20:49;;;;;;;2.95;2.72;;;5.10;99.90;;;;;;485394;245;27617;-72
2021/03/13 01:22:50;;;;;;;5.37;2.45;;;5.10;99.90;;;;;;485408;245;27415;-72
2021/03/13 01:24:51;;;;;;;3.58;2.80;;;5.10;99.90;;;;;;485410;245;27384;-72
2021/03/13 01:26:53;;;;;;;4.00;2.33;;;5.10;99.90;;;;;;485405;245;27478;-73
2021/03/13 01:28:54;;;;;;;4.70;2.60;;;5.10;99.90;;;;;;485413;245;27524;-74
2021/03/13 01:30:55;;;;;;;3.60;2.58;;;5.10;99.90;;;;;;485438;245;27563;-73
2021/03/13 01:32:56;;;;;;;7.37;2.45;;;5.10;99.90;;;;;;485448;245;28106;-72
2021/03/13 01:34:58;;;;;;;4.72;2.25;;;5.10;99.90;;;;;;485454;245;27966;-72
2021/03/13 01:36:59;;;;;;;5.85;2.33;;;5.20;99.90;;;;;;485452;245;27909;-72
2021/03/13 01:39:00;;;;;;;7.95;2.60;;;5.20;99.90;;;;;;485447;245;27388;-72
2021/03/13 01:41:01;;;;;;;2.78;2.03;;;5.20;99.90;;;;;;485418;245;27591;-72
2021/03/13 01:43:03;;;;;;;3.00;2.53;;;5.20;99.90;;;;;;485406;245;27568;-73
2021/03/13 01:45:04;;;;;;;7.00;2.45;;;5.20;99.90;;;;;;485420;245;27491;-73
2021/03/13 01:47:05;;;;;;;5.45;2.40;;;5.20;99.90;;;;;;485412;245;27579;-72
2021/03/13 01:49:06;;;;;;;5.62;2.40;;;5.20;99.90;;;;;;485441;245;27500;-72
2021/03/13 01:51:08;;;;;;;6.65;2.75;;;5.20;99.90;;;;;;485441;245;27500;-72
2021/03/13 01:53:09;;;;;;;3.72;2.67;;;5.20;99.90;;;;;;485412;245;28038;-72
2021/03/13 01:55:10;;;;;;;3.80;2.70;;;5.20;99.90;;;;;;485430;245;27961;-72
2021/03/13 01:57:11;;;;;;;4.00;2.37;;;5.20;99.90;;;;;;485483;245;27459;-72
2021/03/13 01:59:13;;;;;;;5.00;2.30;;;5.20;99.90;;;;;;484533;245;27520;-74
2021/03/13 02:01:14;;;;;;;3.05;1.92;;;5.20;99.90;;;;;;484589;242;27508;-74
2021/03/13 02:03:15;;;;;;;2.75;2.08;;;5.20;99.90;;;;;;475779;249;27532;-73
2021/03/13 02:05:16;;;;;;;3.35;1.90;;;5.20;99.90;;;;;;485467;245;27413;-72
2021/03/13 02:07:18;;;;;;;4.47;1.92;;;5.20;99.90;;;;;;484990;244;27396;-72
2021/03/13 02:09:19;;;;;;;5.10;2.10;;;5.20;99.90;;;;;;484972;245;27417;-72
2021/03/13 02:11:20;;;;;;;6.18;2.20;;;5.20;99.90;;;;;;484916;245;27870;-72
2021/03/13 02:13:21;;;;;;;3.22;1.85;;;5.20;99.90;;;;;;484969;245;27859;-74
2021/03/13 02:15:23;;;;;;;3.25;1.90;;;5.20;99.90;;;;;;484542;245;27455;-72
2021/03/13 02:17:24;;;;;;;4.65;2.10;;;5.20;99.90;;;;;;475834;249;27517;-73
2021/03/13 02:19:25;;;;;;;2.80;2.15;;;5.20;99.90;;;;;;476232;250;27520;-72
2021/03/13 02:21:26;;;;;;;6.78;1.95;;;5.20;99.90;;;;;;481885;247;27397;-72
2021/03/13 02:23:28;;;;;;;2.95;2.05;;;5.20;99.90;;;;;;476255;250;27621;-73
2021/03/13 02:25:29;;;;;;;3.47;1.98;;;5.20;99.90;;;;;;476247;250;27539;-72
2021/03/13 02:27:30;;;;;;;1.90;1.70;;;5.20;99.90;;;;;;481928;247;27417;-73
2021/03/13 02:29:31;;;;;;;3.22;1.90;;;5.20;99.90;;;;;;476263;250;28001;-72
2021/03/13 02:31:33;;;;;;;3.90;2.20;;;5.20;99.90;;;;;;476256;250;27981;-72
2021/03/13 02:33:34;;;;;;;2.87;1.90;;;5.30;99.90;;;;;;476234;250;27510;-73
2021/03/13 02:35:35;;;;;;;7.75;2.20;;;5.20;99.90;;;;;;476238;250;27645;-73
2021/03/13 02:37:37;;;;;;;8.43;2.40;;;5.30;99.90;;;;;;476250;250;27630;-73
2021/03/13 02:39:38;;;;;;;6.95;2.00;;;5.30;99.90;;;;;;476257;250;27515;-72
2021/03/13 02:41:39;;;;;;;4.00;1.95;;;5.20;99.90;;;;;;476253;250;27611;-72
2021/03/13 02:43:40;;;;;;;11.43;3.05;;;5.20;99.90;;;;;;481480;247;27718;-72
2021/03/13 02:45:42;;;;;;;2.75;2.05;;;5.20;99.90;;;;;;481608;247;27746;-72
2021/03/13 02:47:43;;;;;;;4.40;2.00;;;5.20;99.90;;;;;;481604;247;27763;-74
2021/03/13 02:49:44;;;;;;;4.87;1.60;;;5.20;99.90;;;;;;481558;247;27300;-73
2021/03/13 02:51:45;;;;;;;2.58;1.80;;;5.20;99.90;;;;;;481544;247;27320;-72
2021/03/13 02:53:47;;;;;;;7.65;1.67;;;5.20;99.90;;;;;;481542;246;27380;-73
2021/03/13 02:55:48;;;;;;;4.00;1.40;;;5.20;99.90;;;;;;481537;247;27353;-72
2021/03/13 02:57:49;;;;;;;1.75;1.50;;;5.10;99.90;;;;;;481545;247;27418;-73
2021/03/13 02:59:50;;;;;;;1.45;1.20;;;5.10;99.90;;;;;;481542;247;27332;-72
2021/03/13 03:01:52;;;;;;;3.00;1.40;;;5.10;99.90;;;;;;481539;247;27770;-74
2021/03/13 03:03:53;;;;;;;3.17;1.25;;;5.10;99.90;;;;;;481531;247;27882;-73
2021/03/13 03:05:54;;;;;;;2.40;1.27;;;5.10;99.90;;;;;;481523;247;27782;-72
2021/03/13 03:07:55;;;;;;;1.80;1.50;;;5.10;99.90;;;;;;481535;247;27391;-72
2021/03/13 03:09:57;;;;;;;1.45;1.20;;;5.10;99.90;;;;;;481525;247;27300;-74
2021/03/13 03:11:58;;;;;;;2.50;1.40;;;5.10;99.90;;;;;;481529;247;27303;-73
2021/03/13 03:13:59;;;;;;;2.58;1.40;;;5.10;99.90;;;;;;481524;247;27368;-72
2021/03/13 03:16:00;;;;;;;4.65;1.45;;;5.10;99.90;;;;;;481532;247;27304;-73
2021/03/13 03:18:02;;;;;;;1.52;1.33;;;5.10;99.90;;;;;;478925;247;27387;-72
2021/03/13 03:20:03;;;;;;;4.53;1.60;;;5.10;99.90;;;;;;469911;252;27875;-73
2021/03/13 03:22:04;;;;;;;1.90;1.60;;;5.10;99.90;;;;;;474440;249;27881;-73
2021/03/13 03:24:05;;;;;;;9.27;2.30;;;5.10;99.90;;;;;;482437;246;27396;-72
2021/03/13 03:26:07;;;;;;;4.22;1.60;;;5.10;99.90;;;;;;478802;248;27499;-73
2021/03/13 03:28:08;;;;;;;1.73;1.60;;;5.10;99.90;;;;;;474439;249;27475;-72
2021/03/13 03:30:09;;;;;;;3.47;1.95;;;5.10;99.90;;;;;;482442;245;27566;-72
2021/03/13 03:32:10;;;;;;;3.58;2.00;;;5.10;99.90;;;;;;478780;247;27497;-72
2021/03/13 03:34:12;;;;;;;5.68;2.58;;;5.10;99.90;;;;;;472947;249;27516;-72
2021/03/13 03:36:13;;;;;;;2.87;1.80;;;5.10;99.90;;;;;;482341;246;27512;-74
2021/03/13 03:38:14;;;;;;;4.43;1.77;;;5.10;99.90;;;;;;478828;247;28031;-72
2021/03/13 03:40:15;;;;;;;6.68;2.20;;;5.20;99.90;;;;;;474416;249;27909;-72
2021/03/13 03:42:17;;;;;;;4.03;2.05;;;5.20;99.90;;;;;;482448;246;27579;-73
2021/03/13 03:44:18;;;;;;;7.18;2.00;;;5.20;99.90;;;;;;478802;248;27421;-72
2021/03/13 03:46:19;;;;;;;5.07;1.80;;;5.20;99.90;;;;;;474439;249;27422;-73
2021/03/13 03:48:20;;;;;;;10.05;2.20;;;5.30;99.90;;;;;;482460;246;27935;-72
2021/03/13 03:50:22;;;;;;;8.88;2.33;;;5.30;99.90;;;;;;478790;248;27401;-72
2021/03/13 03:52:23;;;;;;;2.47;1.52;;;5.30;99.90;;;;;;474472;249;27531;-75
2021/03/13 03:54:24;;;;;;;2.12;1.90;;;5.30;99.90;;;;;;482450;245;27836;-72
2021/03/13 03:56:25;;;;;;;5.97;2.37;;;5.40;99.90;;;;;;478855;248;27852;-73
2021/03/13 03:58:27;;;;;;;4.80;2.08;;;5.40;99.90;;;;;;473098;249;27993;-72
2021/03/13 04:00:28;;;;;;;8.05;2.55;;;5.40;99.90;;;;;;482032;246;27394;-73
2021/03/13 04:02:29;;;;;;;2.83;2.00;;;5.40;99.90;;;;;;473970;249;27626;-75
2021/03/13 04:04:30;;;;;;;10.30;2.72;;;5.40;99.90;;;;;;473952;249;27606;-72
2021/03/13 04:06:32;;;;;;;9.88;2.60;;;5.50;99.90;;;;;;473951;249;27607;-73
2021/03/13 04:08:33;;;;;;;9.38;3.17;;;5.50;99.90;;;;;;473965;249;27612;-72
2021/03/13 04:10:34;;;;;;;26.73;3.05;;;5.50;99.90;;;;;;473960;249;27504;-72
2021/03/13 04:12:35;;;;;;;8.90;2.30;;;5.60;99.90;;;;;;473945;249;27959;-73
2021/03/13 04:14:37;;;;;;;7.37;2.28;;;5.60;99.90;;;;;;473909;249;27952;-72
2021/03/13 04:16:38;;;;;;;8.48;2.92;;;5.60;99.90;;;;;;473916;249;27502;-73
2021/03/13 04:18:39;;;;;;;3.87;2.40;;;5.60;99.90;;;;;;477283;249;27509;-73
2021/03/13 04:20:41;;;;;;;4.20;1.77;;;5.60;99.90;;;;;;485487;245;27411;-72
2021/03/13 04:22:42;;;;;;;12.82;2.78;;;5.60;99.90;;;;;;486847;244;27504;-73
2021/03/13 04:24:43;;;;;;;10.57;2.42;;;5.60;99.90;;;;;;485442;244;27628;-72
2021/03/13 04:26:44;;;;;;;4.30;2.30;;;5.60;99.90;;;;;;485467;245;27937;-73
2021/03/13 04:28:46;;;;;;;7.97;2.70;;;5.70;99.90;;;;;;486867;244;28065;-73
2021/03/13 04:30:47;;;;;;;10.38;2.75;;;5.70;99.90;;;;;;485449;244;27460;-72
2021/03/13 04:32:48;;;;;;;10.40;2.20;;;5.70;99.90;;;;;;485489;245;27478;-73
2021/03/13 04:34:49;;;;;;;6.53;2.22;;;5.70;99.90;;;;;;486832;244;27993;-72
2021/03/13 04:36:51;;;;;;;5.28;1.95;;;5.70;99.90;;;;;;485422;244;27492;-72
2021/03/13 04:38:52;;;;;;;12.88;2.00;;;5.70;99.90;;;;;;485479;245;27394;-73
2021/03/13 04:40:56;;;;;;;4.40;1.80;;;5.70;99.90;;;;;;486851;244;27960;-72
2021/03/13 04:42:57;;;;;;;5.55;2.25;;;5.70;99.90;;;;;;485435;244;27404;-72
2021/03/13 04:44:59;;;;;;;6.05;2.37;;;5.80;99.90;;;;;;485472;245;27480;-73
2021/03/13 04:47:00;;;;;;;4.20;2.37;;;5.70;99.90;;;;;;486854;244;27498;-73
2021/03/13 04:49:02;;;;;;;8.85;2.62;;;5.80;99.90;;;;;;485394;245;27566;-74
2021/03/13 04:51:04;;;;;;;6.60;2.25;;;5.80;99.90;;;;;;485460;245;27409;-74
2021/03/13 04:53:05;;;;;;;7.95;2.55;;;5.80;99.90;;;;;;486875;244;27577;-73
2021/03/13 04:55:06;;;;;;;10.57;2.95;;;5.70;99.90;;;;;;485426;244;27927;-72
2021/03/13 04:57:07;;;;;;;4.00;2.00;;;5.70;99.90;;;;;;485468;245;27917;-73
2021/03/13 04:59:09;;;;;;;7.85;2.08;;;5.80;99.90;;;;;;486882;244;27500;-74
2021/03/13 05:01:10;;;;;;;12.88;2.83;;;5.80;99.90;;;;;;485408;245;27618;-73
2021/03/13 05:03:11;;;;;;;10.50;2.50;;;5.80;99.90;;;;;;485456;245;27418;-73
2021/03/13 05:05:13;;;;;;;12.63;2.10;;;5.80;99.90;;;;;;486880;244;27569;-73
2021/03/13 05:07:14;;;;;;;4.43;2.28;;;5.80;99.90;;;;;;485481;244;27844;-72
2021/03/13 05:09:16;;;;;;;7.65;2.20;;;5.70;99.90;;;;;;486883;244;28101;-73
2021/03/13 05:11:16;;;;;;;5.87;2.20;;;5.70;99.90;;;;;;485378;245;27500;-72
2021/03/13 05:13:18;;;;;;;4.80;1.90;;;5.80;99.90;;;;;;485471;245;27414;-72
2021/03/13 05:15:19;;;;;;;3.85;2.03;;;5.70;99.90;;;;;;486849;244;27556;-72
2021/03/13 05:17:20;;;;;;;5.47;1.87;;;5.80;99.90;;;;;;485410;243;27572;-74
2021/03/13 05:19:21;;;;;;;6.10;2.15;;;5.80;99.90;;;;;;485478;245;27456;-74
2021/03/13 05:21:23;;;;;;;4.35;1.90;;;5.80;99.90;;;;;;486875;244;28052;-73
2021/03/13 05:23:24;;;;;;;3.87;1.70;;;5.80;99.90;;;;;;485436;245;27952;-72
2021/03/13 05:25:25;;;;;;;3.55;1.65;;;5.80;99.90;;;;;;485497;245;27911;-72
2021/03/13 05:27:26;;;;;;;4.32;1.70;;;5.80;99.90;;;;;;486902;244;27586;-73
2021/03/13 05:29:28;;;;;;;6.35;2.10;;;5.80;99.90;;;;;;485440;244;27602;-73
2021/03/13 05:31:29;;;;;;;8.55;2.00;;;5.80;99.90;;;;;;485486;245;27395;-73
2021/03/13 05:33:30;;;;;;;7.60;1.98;;;5.70;99.90;;;;;;486859;244;27502;-74
2021/03/13 05:35:31;;;;;;;4.07;1.65;;;5.80;99.90;;;;;;485441;244;27590;-72
2021/03/13 05:37:33;;;;;;;6.80;1.60;;;5.80;99.90;;;;;;485502;245;27856;-73
2021/03/13 05:39:34;;;;;;;5.18;1.90;;;5.80;99.90;;;;;;486867;244;28074;-73
2021/03/13 05:41:35;;;;;;;7.72;1.83;;;5.80;99.90;;;;;;485459;244;27384;-72
2021/03/13 05:43:36;;;;;;;4.32;1.85;;;5.80;99.90;;;;;;485516;245;27403;-73
2021/03/13 05:45:38;;;;;;;7.07;1.85;;;5.80;99.90;;;;;;486900;244;27489;-72
2021/03/13 05:47:39;;;;;;;7.00;2.22;;;5.80;99.90;;;;;;485456;244;27408;-72
2021/03/13 05:49:40;;;;;;;7.68;2.53;;;5.80;99.90;;;;;;485513;245;27489;-73
2021/03/13 05:51:41;;;;;;;5.55;2.10;;;5.90;99.90;;;;;;486947;244;28030;-72
2021/03/13 05:53:43;;;;;;;2.92;1.90;;;5.90;99.90;;;;;;485494;245;27838;-73
2021/03/13 05:55:44;;;;;;;7.07;1.80;;;5.90;99.90;;;;;;485547;245;27472;-72
2021/03/13 05:57:45;;;;;;;3.65;1.45;;;5.90;99.90;;;;;;486938;244;27499;-72
2021/03/13 05:59:46;;;;;;;8.40;2.75;;;5.90;99.90;;;;;;485491;245;27511;-74
2021/03/13 06:01:48;;;;;;;4.12;1.87;;;5.90;99.90;;;;;;485547;245;27399;-72
2021/03/13 06:03:49;;;;;;;8.65;1.98;;;5.90;99.90;;;;;;486917;244;27639;-72
2021/03/13 06:05:50;;;;;;;7.47;1.75;;;5.90;99.90;;;;;;485490;245;27415;-72
2021/03/13 06:07:51;;;;;;;6.07;1.65;;;5.90;99.90;;;;;;485493;245;27865;-72
2021/03/13 06:09:53;;;;;;;3.55;2.10;;;5.90;99.90;;;;;;486882;244;27573;-74
2021/03/13 06:11:54;;;;;;;6.10;1.65;;;5.90;99.90;;;;;;485467;244;27400;-72
2021/03/13 06:13:55;;;;;;;2.08;1.52;;;5.90;99.90;;;;;;485510;245;27477;-73
2021/03/13 06:15:57;;;;;;;4.47;1.70;;;6.00;99.90;;;;;;486860;244;27597;-73
2021/03/13 06:17:58;;;;;;;5.85;1.60;;;6.00;99.90;;;;;;485451;243;27508;-73
2021/03/13 06:19:59;;;;;;;4.40;1.73;;;6.00;99.90;;;;;;485504;245;28031;-73
2021/03/13 06:22:00;;;;;;;9.55;2.10;;;6.00;99.90;;;;;;486879;244;27954;-72
2021/03/13 06:24:02;;;;;;;1.85;1.60;;;6.00;99.90;;;;;;485455;245;27592;-74
2021/03/13 06:26:03;;;;;;;4.45;1.60;;;6.00;99.90;;;;;;485476;245;27505;-72
2021/03/13 06:28:04;;;;;;;6.22;1.73;;;6.00;99.90;;;;;;486886;244;27581;-73
2021/03/13 06:30:05;;;;;;;5.25;1.60;;;6.00;99.90;;;;;;485457;244;27598;-72
2021/03/13 06:32:07;;;;;;;3.30;1.50;;;6.00;99.90;;;;;;485505;245;27944;-73
2021/03/13 06:34:08;;;;;;;7.60;1.70;;;6.10;99.90;;;;;;486920;244;29163;-72
2021/03/13 06:36:09;;;;;;;8.38;1.58;;;6.10;99.90;;;;;;485397;245;28676;-72
2021/03/13 06:38:10;;;;;;;2.12;1.60;;;6.10;99.90;;;;;;485482;245;27888;-72
2021/03/13 06:40:12;;;;;;;3.28;1.52;;;6.10;99.90;;;;;;486848;244;27499;-72
2021/03/13 06:42:13;;;;;;;2.75;1.40;;;6.10;99.90;;;;;;485460;243;27614;-75
2021/03/13 06:44:15;;;;;;;4.72;1.42;;;6.10;99.90;;;;;;485484;245;27413;-72
2021/03/13 06:46:15;;;;;;;6.78;1.60;;;6.20;99.90;;;;;;486866;244;27507;-72
2021/03/13 06:48:17;;;;;;;5.80;1.67;;;6.20;99.90;;;;;;485435;245;27979;-73
2021/03/13 06:50:18;;;;;;;8.65;1.70;;;6.20;99.90;;;;;;485482;245;27841;-72
2021/03/13 06:52:19;;;;;;;2.78;1.65;;;6.20;99.90;;;;;;486864;244;27510;-73
2021/03/13 06:54:20;;;;;;;6.20;1.90;;;6.20;99.90;;;;;;485440;244;27614;-73
2021/03/13 06:56:22;;;;;;;4.70;1.40;;;6.20;99.90;;;;;;485488;245;27413;-72
2021/03/13 06:58:23;;;;;;;2.37;1.50;;;6.30;99.90;;;;;;486877;244;27486;-73
2021/03/13 07:00:24;;;;;;;7.97;1.83;;;6.30;99.90;;;;;;485449;244;27479;-72
2021/03/13 07:02:25;;;;;;;4.62;2.10;;;6.30;99.90;;;;;;485496;245;27932;-73
2021/03/13 07:04:27;;;;;;;7.70;1.77;;;6.40;99.90;;;;;;486900;244;27984;-74
2021/03/13 07:06:28;;;;;;;4.75;1.60;;;6.30;99.90;;;;;;485475;244;27799;-72
2021/03/13 07:08:29;;;;;;;4.90;1.70;;;6.40;99.90;;;;;;485542;245;27482;-73
2021/03/13 07:10:30;;;;;;;3.17;1.50;;;6.40;99.90;;;;;;486930;244;28327;-72
2021/03/13 07:12:32;;;;;;;2.00;1.55;;;6.40;99.90;;;;;;485457;243;27606;-72
2021/03/13 07:14:33;;;;;;;5.18;1.90;;;6.50;99.90;;;;;;485511;245;27406;-72
2021/03/13 07:16:34;;;;;;;6.32;2.10;;;6.50;99.90;;;;;;486852;244;27597;-72
2021/03/13 07:18:35;;;;;;;7.40;1.75;;;6.50;99.90;;;;;;485407;245;28022;-73
2021/03/13 07:20:38;;;;;;;2.92;1.75;;;6.50;99.90;;;;;;482271;245;28059;-72
2021/03/13 07:22:38;;;;;;;9.50;1.95;;;6.50;99.90;;;;;;474856;249;27491;-73
2021/03/13 07:24:39;;;;;;;4.53;2.12;;;6.60;99.90;;;;;;479730;248;27496;-73
2021/03/13 07:26:41;;;;;;;4.33;1.90;;;6.60;99.90;;;;;;474439;249;27485;-73
2021/03/13 07:28:42;;;;;;;5.57;2.25;;;6.60;99.90;;;;;;474350;251;28781;-73
2021/03/13 07:30:43;;;;;;;4.23;1.70;;;6.70;99.90;;;;;;474360;250;27415;-72
2021/03/13 07:32:44;;;;;;;7.37;1.80;;;6.70;99.90;;;;;;474353;250;28361;-73
2021/03/13 07:34:46;;;;;;;2.30;1.45;;;6.70;99.90;;;;;;474347;250;27997;-73
2021/03/13 07:36:47;;;;;;;7.00;1.60;;;6.70;99.90;;;;;;474340;250;27961;-72
2021/03/13 07:38:48;;;;;;;6.30;2.10;;;6.70;99.90;;;;;;474375;250;28626;-74
2021/03/13 07:40:49;;;;;;;2.90;1.67;;;6.70;99.90;;;;;;474341;250;28809;-74
2021/03/13 07:42:51;;;;;;;2.87;1.40;;;6.70;99.90;;;;;;474348;250;27524;-72
2021/03/13 07:44:52;;;;;;;6.18;1.65;;;6.70;99.90;;;;;;474342;250;28147;-72
2021/03/13 07:46:53;;;;;;;2.67;1.70;;;6.70;99.90;;;;;;474347;250;27424;-72
2021/03/13 07:48:54;;;;;;;6.87;2.12;;;6.70;99.90;;;;;;474352;250;27894;-72
2021/03/13 07:50:56;;;;;;;4.90;1.70;;;6.70;99.90;;;;;;474346;251;27516;-73
2021/03/13 07:52:57;;;;;;;5.80;1.80;;;6.80;99.90;;;;;;474347;250;27782;-74
2021/03/13 07:54:58;;;;;;;5.63;1.73;;;6.80;99.90;;;;;;474336;250;29244;-72
2021/03/13 07:56:59;;;;;;;3.50;1.57;;;6.90;99.90;;;;;;474356;250;28348;-72
2021/03/13 07:59:01;;;;;;;3.23;1.33;;;6.90;99.90;;;;;;474354;250;28475;-72
2021/03/13 08:01:02;;;;;;;6.20;2.20;;;6.90;99.90;;;;;;474352;250;29238;-73
2021/03/13 08:03:03;;;;;;;2.87;1.50;;;6.90;99.90;;;;;;474357;250;28231;-72
2021/03/13 08:05:06;;;;;;;5.22;1.77;;;6.70;99.90;;;;;;474353;251;27982;-72
2021/03/13 08:07:06;;;;;;;7.55;1.98;;;6.70;99.90;;;;;;474358;250;27421;-73
2021/03/13 08:09:07;;;;;;;4.93;1.60;;;6.70;99.90;;;;;;474386;251;27411;-72
2021/03/13 08:11:08;;;;;;;6.47;1.70;;;6.70;99.90;;;;;;474398;251;27848;-73
2021/03/13 08:13:09;;;;;;;4.87;1.70;;;6.70;99.90;;;;;;474402;250;27408;-72
2021/03/13 08:15:11;;;;;;;5.57;1.73;;;6.60;99.90;;;;;;474392;251;27886;-73
2021/03/13 08:17:12;;;;;;;4.60;1.40;;;6.60;99.90;;;;;;474395;251;28532;-74
2021/03/13 08:19:13;;;;;;;2.97;1.77;;;6.70;99.90;;;;;;474398;250;28415;-72
2021/03/13 08:21:14;;;;;;;6.47;1.77;;;6.70;99.90;;;;;;474379;251;29235;-73
2021/03/13 08:23:17;;;;;;;2.65;1.33;;;6.80;99.90;;;;;;474357;249;27522;-72
2021/03/13 08:25:17;;;;;;;2.20;1.60;;;6.80;99.90;;;;;;474341;250;27424;-73
2021/03/13 08:27:18;;;;;;;4.67;1.93;;;6.80;99.90;;;;;;474349;250;28152;-73
2021/03/13 08:29:19;;;;;;;3.17;1.37;;;6.80;99.90;;;;;;474357;250;27875;-72
2021/03/13 08:31:21;;;;;;;3.85;1.40;;;6.90;99.90;;;;;;474356;250;27840;-72
2021/03/13 08:33:22;;;;;;;4.12;1.70;;;7.00;99.90;;;;;;474336;250;27420;-74
2021/03/13 08:35:23;;;;;;;3.00;1.40;;;7.10;99.90;;;;;;474335;250;27435;-73
2021/03/13 08:37:24;;;;;;;3.40;1.70;;;7.10;99.90;;;;;;474352;250;28383;-74
2021/03/13 08:39:26;;;;;;;2.80;1.30;;;7.20;99.90;;;;;;474350;250;27962;-72
2021/03/13 08:41:27;;;;;;;6.10;1.80;;;7.20;99.90;;;;;;474342;251;28390;-73
2021/03/13 08:43:28;;;;;;;13.93;2.13;;;7.20;99.90;;;;;;474330;251;29268;-73
2021/03/13 08:45:29;;;;;;;3.33;1.40;;;7.20;99.90;;;;;;474339;250;28795;-73
2021/03/13 08:47:31;;;;;;;2.92;1.52;;;7.10;99.90;;;;;;474354;250;27902;-73
2021/03/13 08:49:32;;;;;;;4.30;1.80;;;7.10;99.90;;;;;;474349;250;27705;-72
2021/03/13 08:51:33;;;;;;;3.93;1.40;;;7.10;99.90;;;;;;474340;250;27880;-74
2021/03/13 08:53:34;;;;;;;7.97;1.90;;;7.10;99.90;;;;;;474334;250;28015;-73
2021/03/13 08:55:36;;;;;;;3.93;1.30;;;7.10;99.90;;;;;;474319;250;28777;-73
2021/03/13 08:57:39;;;;;;;3.83;1.83;;;7.10;99.90;;;;;;474325;250;27929;-72
2021/03/13 08:59:38;;;;;;;10.03;1.70;;;7.00;99.90;;;;;;474334;250;27903;-73
2021/03/13 09:01:40;;;;;;;5.12;1.45;;;7.10;99.90;;;;;;474357;250;27423;-72
2021/03/13 09:03:41;;;;;;;3.87;1.48;;;7.10;99.90;;;;;;474337;250;28011;-73
2021/03/13 09:05:42;;;;;;;5.83;1.30;;;7.00;99.90;;;;;;474344;250;27870;-73
2021/03/13 09:07:43;;;;;;;2.40;1.40;;;7.00;99.90;;;;;;474348;250;28499;-72
2021/03/13 09:09:44;;;;;;;1.50;1.40;;;7.00;99.90;;;;;;474355;250;27435;-73
2021/03/13 09:11:46;;;;;;;1.40;1.30;;;7.00;99.90;;;;;;474333;250;28380;-72
2021/03/13 09:13:47;;;;;;;3.47;1.60;;;7.00;99.90;;;;;;474341;250;28675;-73
2021/03/13 09:15:48;;;;;;;2.67;1.27;;;7.10;99.90;;;;;;474328;250;27975;-74
2021/03/13 09:17:49;;;;;;;4.10;1.30;;;7.10;99.90;;;;;;474346;250;28432;-73
2021/03/13 09:19:51;;;;;;;1.97;1.10;;;7.10;99.90;;;;;;474350;249;27980;-73
2021/03/13 09:21:52;;;;;;;2.50;1.50;;;7.10;99.90;;;;;;474863;249;28877;-73
2021/03/13 09:23:53;;;;;;;1.60;1.30;;;7.00;99.90;;;;;;485343;244;28419;-72
2021/03/13 09:25:54;;;;;;;4.00;1.53;;;7.10;99.90;;;;;;486944;244;27750;-72
2021/03/13 09:27:56;;;;;;;3.70;1.60;;;7.00;99.90;;;;;;485491;244;27941;-72
2021/03/13 09:29:57;;;;;;;1.93;1.57;;;6.90;99.90;;;;;;485542;245;27951;-73
2021/03/13 09:31:58;;;;;;;1.80;1.27;;;6.90;99.90;;;;;;486895;244;28184;-72
2021/03/13 09:33:59;;;;;;;4.97;1.47;;;6.80;99.90;;;;;;485453;244;28333;-73
2021/03/13 09:36:01;;;;;;;2.60;1.30;;;6.80;99.90;;;;;;485468;245;28293;-73
2021/03/13 09:38:02;;;;;;;1.77;1.40;;;6.70;99.90;;;;;;486880;244;28444;-73
2021/03/13 09:40:03;;;;;;;2.80;1.30;;;6.80;99.90;;;;;;485439;244;28828;-74
2021/03/13 09:42:04;;;;;;;2.60;1.40;;;6.80;99.90;;;;;;485469;245;27490;-73
2021/03/13 09:44:06;;;;;;;1.97;1.40;;;6.80;99.90;;;;;;485102;244;27697;-73
2021/03/13 09:46:07;;;;;;;2.90;1.37;;;6.80;99.90;;;;;;485410;245;27984;-73
2021/03/13 09:48:08;;;;;;;2.90;1.60;;;6.80;99.90;;;;;;486886;244;28024;-73
2021/03/13 09:50:09;;;;;;;3.97;1.30;;;6.80;99.90;;;;;;485422;245;28844;-72
2021/03/13 09:52:11;;;;;;;1.77;1.40;;;6.80;99.90;;;;;;485466;245;27533;-72
2021/03/13 09:54:12;;;;;;;1.90;1.40;;;6.90;99.90;;;;;;485201;244;27855;-72
2021/03/13 09:56:13;;;;;;;3.40;1.20;;;6.80;99.90;;;;;;484952;245;27844;-72
2021/03/13 09:58:14;;;;;;;3.00;1.50;;;6.70;99.90;;;;;;484957;245;27716;-73
2021/03/13 10:00:16;;;;;;;2.30;1.70;;;6.70;99.90;;;;;;485364;245;28085;-74
2021/03/13 10:02:17;;;;;;;2.53;1.30;;;6.70;99.90;;;;;;485220;244;29296;-73
2021/03/13 10:04:18;;;;;;;3.17;1.27;;;6.80;99.90;;;;;;484960;245;29268;-73
2021/03/13 10:06:19;;;;;;;2.67;1.40;;;6.80;99.90;;;;;;484973;245;27982;-72
2021/03/13 10:08:21;;;;;;;1.65;1.12;;;6.80;99.90;;;;;;484989;245;28838;-73
2021/03/13 10:10:22;;;;;;;1.40;1.30;;;6.80;99.90;;;;;;484946;245;27411;-72
2021/03/13 10:12:23;;;;;;;1.70;1.30;;;6.80;99.90;;;;;;485367;245;28081;-72
2021/03/13 10:14:24;;;;;;;1.00;1.00;;;6.90;99.90;;;;;;486900;244;27927;-73
2021/03/13 10:16:26;;;;;;;2.13;1.30;;;6.90;99.90;;;;;;485433;245;27974;-72
2021/03/13 10:18:28;;;;;;;1.53;1.10;;;6.90;99.90;;;;;;485500;245;28837;-73
2021/03/13 10:20:28;;;;;;;3.43;1.30;;;7.00;99.90;;;;;;486898;244;27510;-73
2021/03/13 10:22:29;;;;;;;2.40;1.17;;;7.00;99.90;;;;;;485431;245;27969;-73
2021/03/13 10:24:31;;;;;;;1.73;1.27;;;7.10;99.90;;;;;;485487;245;27632;-73
2021/03/13 10:26:32;;;;;;;3.50;1.80;;;7.10;99.90;;;;;;485396;244;27399;-72
2021/03/13 10:28:33;;;;;;;2.23;1.30;;;7.00;99.90;;;;;;485355;245;28344;-74
2021/03/13 10:30:34;;;;;;;1.30;1.20;;;7.10;99.90;;;;;;486874;244;28397;-72
2021/03/13 10:32:36;;;;;;;2.10;1.30;;;7.00;99.90;;;;;;485446;244;28060;-72
2021/03/13 10:34:37;;;;;;;2.37;1.57;;;7.10;99.90;;;;;;485491;245;28358;-73
2021/03/13 10:36:38;;;;;;;1.13;1.03;;;7.10;99.90;;;;;;486429;244;28059;-73
2021/03/13 10:38:39;;;;;;;3.03;1.30;;;7.00;99.90;;;;;;485383;245;28227;-74
2021/03/13 10:40:41;;;;;;;1.60;1.20;;;6.90;99.90;;;;;;486961;244;27992;-73